Time;durP1;ratioP1;P1;durP2;ratioP2;P2;SDS_P1;SDS_P2;PMS_P1;PMS_P2;Temp;Humidity;BMP_temperature;BMP_pressure;BME280_temperature;BME280_humidity;BME280_pressure;Samples;Min_cycle;Max_cycle;Signal;HPM_P1;HPM_P2
2022/02/12 00:00:16;;;;;;;993.85;927.08;;;;;;;2.62;61.29;102784.00;693742;28;21552;-70
2022/02/12 00:00:38;;;;;;;986.13;919.63;;;;;;;2.61;61.42;102783.09;691830;28;69432;-70
2022/02/12 00:00:59;;;;;;;985.60;919.10;;;;;;;2.60;61.51;102785.84;693889;28;22399;-69
2022/02/12 00:01:20;;;;;;;997.83;930.90;;;;;;;2.60;61.67;102784.06;692987;28;21365;-70
2022/02/12 00:01:42;;;;;;;1003.55;936.25;;;;;;;2.59;61.57;102784.16;693854;28;21205;-70
2022/02/12 00:02:03;;;;;;;1004.13;936.90;;;;;;;2.57;61.59;102781.56;693081;28;46234;-69
2022/02/12 00:02:24;;;;;;;1002.42;935.40;;;;;;;2.57;61.72;102783.34;693588;28;21534;-71
2022/02/12 00:02:45;;;;;;;998.65;931.60;;;;;;;2.56;61.81;102782.47;692932;28;46279;-69
2022/02/12 00:03:07;;;;;;;998.42;931.42;;;;;;;2.53;61.69;102782.63;693662;28;22398;-70
2022/02/12 00:03:29;;;;;;;994.80;927.92;;;;;;;2.55;61.87;102790.56;693470;28;22363;-70
2022/02/12 00:03:50;;;;;;;999.08;931.92;;;;;;;2.56;61.87;102787.81;694041;28;43948;-72
2022/02/12 00:04:11;;;;;;;1005.40;938.13;;;;;;;2.56;61.90;102789.63;694285;28;23432;-69
2022/02/12 00:04:32;;;;;;;999.58;932.58;;;;;;;2.56;61.89;102785.16;694389;28;22442;-71
2022/02/12 00:04:53;;;;;;;996.85;929.95;;;;;;;2.55;61.95;102779.88;694484;28;21533;-69
2022/02/12 00:05:17;;;;;;;993.53;926.80;;;;;;;2.56;62.07;102792.28;694942;28;22340;-70
2022/02/12 00:05:38;;;;;;;1001.22;934.20;;;;;;;2.54;62.06;102784.38;691694;28;92125;-70
2022/02/12 00:05:59;;;;;;;1000.38;933.35;;;;;;;2.53;61.97;102783.47;693178;28;22491;-69
2022/02/12 00:06:21;;;;;;;1001.25;934.05;;;;;;;2.55;61.98;102794.06;693023;28;22391;-70
2022/02/12 00:06:42;;;;;;;1003.33;936.20;;;;;;;2.51;61.87;102785.38;692533;28;45808;-70
2022/02/12 00:07:04;;;;;;;1001.25;934.15;;;;;;;2.52;61.65;102788.88;693507;28;22380;-69
2022/02/12 00:07:25;;;;;;;1000.40;933.40;;;;;;;2.50;61.75;102794.28;690644;28;19791;-70
2022/02/12 00:07:46;;;;;;;1008.88;941.53;;;;;;;2.48;61.66;102785.50;690170;28;45270;-71
2022/02/12 00:08:09;;;;;;;1000.40;933.38;;;;;;;2.49;61.86;102795.25;691021;28;22408;-69
2022/02/12 00:08:30;;;;;;;994.70;927.80;;;;;;;2.49;61.79;102786.38;690278;28;69256;-70
2022/02/12 00:08:51;;;;;;;998.95;931.90;;;;;;;2.47;62.07;102797.09;693325;28;22238;-70
2022/02/12 00:09:12;;;;;;;1004.75;937.53;;;;;;;2.45;61.78;102800.81;693479;28;21518;-70
2022/02/12 00:09:35;;;;;;;1008.72;941.42;;;;;;;2.44;61.98;102794.59;693468;28;23506;-71
2022/02/12 00:09:56;;;;;;;998.80;931.75;;;;;;;2.43;62.14;102798.22;693030;28;44378;-69
2022/02/12 00:10:17;;;;;;;995.67;928.78;;;;;;;2.42;62.16;102795.63;693737;28;20560;-70
2022/02/12 00:10:39;;;;;;;1001.22;934.03;;;;;;;2.41;62.05;102805.41;693436;28;23697;-70
2022/02/12 00:11:00;;;;;;;1002.75;935.53;;;;;;;2.41;62.08;102799.22;692788;28;45285;-70
2022/02/12 00:11:21;;;;;;;1008.25;940.88;;;;;;;2.41;62.18;102800.06;692918;28;21569;-69
2022/02/12 00:11:43;;;;;;;1003.92;936.72;;;;;;;2.41;62.23;102804.56;693695;28;22444;-71
2022/02/12 00:12:04;;;;;;;1005.58;938.42;;;;;;;2.42;62.34;102806.28;692649;28;44006;-70
2022/02/12 00:12:26;;;;;;;1003.40;936.20;;;;;;;2.43;62.41;102798.22;692681;28;43892;-71
2022/02/12 00:12:47;;;;;;;1002.17;935.08;;;;;;;2.44;62.38;102799.91;693563;28;22433;-69
2022/02/12 00:13:11;;;;;;;1007.88;940.50;;;;;;;2.44;62.58;102797.25;692840;28;44498;-70
2022/02/12 00:13:32;;;;;;;1005.38;938.13;;;;;;;2.44;62.28;102801.75;690886;28;92332;-69
2022/02/12 00:13:54;;;;;;;1005.40;938.15;;;;;;;2.44;62.30;102801.75;692982;28;46369;-70
2022/02/12 00:14:15;;;;;;;998.85;931.90;;;;;;;2.45;62.22;102800.81;693744;28;21519;-69
2022/02/12 00:14:36;;;;;;;1000.33;933.33;;;;;;;2.44;62.30;102799.06;693655;28;22419;-70
2022/02/12 00:14:58;;;;;;;1006.83;939.45;;;;;;;2.46;62.25;102799.84;693677;28;22194;-69
2022/02/12 00:15:19;;;;;;;1008.22;940.83;;;;;;;2.44;62.31;102802.59;692957;28;45259;-69
2022/02/12 00:15:41;;;;;;;1001.45;934.42;;;;;;;2.45;62.25;102804.34;693530;28;23474;-71
2022/02/12 00:16:03;;;;;;;1001.67;934.53;;;;;;;2.46;62.42;102802.53;692520;28;46566;-69
2022/02/12 00:16:25;;;;;;;1001.80;934.67;;;;;;;2.48;62.42;102808.66;691661;28;44349;-70
2022/02/12 00:16:46;;;;;;;1009.00;941.50;;;;;;;2.46;62.15;102802.53;693484;28;22415;-70
2022/02/12 00:17:07;;;;;;;1010.55;943.03;;;;;;;2.47;62.33;102813.13;693358;28;22596;-70
2022/02/12 00:17:29;;;;;;;1004.13;937.05;;;;;;;2.45;62.05;102811.47;693293;28;22463;-69
2022/02/12 00:17:50;;;;;;;1001.58;934.53;;;;;;;2.44;62.13;102813.25;694019;28;3167;-69
2022/02/12 00:18:11;;;;;;;998.60;931.72;;;;;;;2.42;61.99;102817.81;693522;28;22355;-69
2022/02/12 00:18:33;;;;;;;998.80;931.90;;;;;;;2.41;62.09;102809.88;692601;28;23429;-70
2022/02/12 00:18:55;;;;;;;996.90;930.03;;;;;;;2.37;61.99;102809.19;692133;28;67464;-70
2022/02/12 00:19:16;;;;;;;998.08;931.17;;;;;;;2.38;61.90;102818.03;693583;28;22404;-69
2022/02/12 00:19:37;;;;;;;1001.03;934.10;;;;;;;2.37;61.99;102816.28;693498;28;21555;-70
2022/02/12 00:19:58;;;;;;;1000.92;934.00;;;;;;;2.35;62.08;102813.69;693758;28;23496;-68
2022/02/12 00:20:20;;;;;;;998.47;931.58;;;;;;;2.36;62.18;102820.75;693664;28;22376;-70
2022/02/12 00:20:41;;;;;;;999.10;932.15;;;;;;;2.33;62.16;102812.91;692730;28;46265;-70
2022/02/12 00:21:02;;;;;;;1005.72;938.53;;;;;;;2.33;62.26;102805.75;692693;28;45267;-70
2022/02/12 00:21:24;;;;;;;1009.83;942.47;;;;;;;2.35;62.27;102816.34;692805;28;22545;-69
2022/02/12 00:21:46;;;;;;;1005.22;938.08;;;;;;;2.33;62.47;102812.91;694950;28;21526;-69
2022/02/12 00:22:07;;;;;;;1003.30;936.22;;;;;;;2.34;62.20;102814.66;694031;28;46319;-69
2022/02/12 00:22:28;;;;;;;1007.63;940.40;;;;;;;2.33;62.31;102811.09;694277;28;22385;-69
2022/02/12 00:22:49;;;;;;;1013.13;945.60;;;;;;;2.30;62.11;102813.06;694135;28;44269;-69
2022/02/12 00:23:14;;;;;;;1007.15;939.78;;;;;;;2.28;62.15;102815.78;692105;28;22882;-69
2022/02/12 00:23:35;;;;;;;1005.60;938.42;;;;;;;2.27;62.16;102815.88;689592;28;90701;-69
2022/02/12 00:23:56;;;;;;;993.80;927.03;;;;;;;2.26;62.40;102817.69;694431;28;23484;-69
2022/02/12 00:24:17;;;;;;;1002.90;935.80;;;;;;;2.27;62.49;102810.53;694286;28;22419;-70
2022/02/12 00:24:38;;;;;;;1005.90;938.67;;;;;;;2.26;62.50;102820.34;694105;28;23877;-71
2022/02/12 00:25:00;;;;;;;1000.15;933.05;;;;;;;2.24;62.51;102813.34;694098;28;22396;-69
2022/02/12 00:25:21;;;;;;;1002.72;935.60;;;;;;;2.25;62.51;102820.41;692761;28;46456;-71
2022/02/12 00:25:42;;;;;;;1007.13;939.78;;;;;;;2.24;62.46;102814.22;692976;28;22258;-69
2022/02/12 00:26:03;;;;;;;1006.33;939.05;;;;;;;2.22;62.54;102815.22;693326;28;21530;-70
2022/02/12 00:26:25;;;;;;;1007.50;940.30;;;;;;;2.21;62.60;102810.81;692885;28;22360;-69
2022/02/12 00:26:47;;;;;;;1001.08;934.10;;;;;;;2.20;62.59;102811.78;693174;28;44738;-69
2022/02/12 00:27:08;;;;;;;994.40;927.70;;;;;;;2.19;62.68;102815.38;692833;28;44385;-69
2022/02/12 00:27:30;;;;;;;994.38;927.65;;;;;;;2.19;62.80;102810.03;692621;28;22357;-69
2022/02/12 00:27:52;;;;;;;1005.33;938.13;;;;;;;2.17;62.69;102812.78;692699;28;46664;-71
2022/02/12 00:28:13;;;;;;;995.17;928.38;;;;;;;2.16;62.82;102811.03;692917;28;45277;-70
2022/02/12 00:28:34;;;;;;;994.22;927.42;;;;;;;2.14;62.74;102818.25;693782;28;21521;-69
2022/02/12 00:28:55;;;;;;;993.80;927.00;;;;;;;2.14;62.93;102819.09;693639;28;22336;-70
2022/02/12 00:29:17;;;;;;;992.42;925.65;;;;;;;2.13;62.91;102820.06;693853;28;22426;-69
2022/02/12 00:29:38;;;;;;;988.20;921.63;;;;;;;2.12;63.06;102815.66;692704;28;43979;-71
2022/02/12 00:29:59;;;;;;;996.80;930.00;;;;;;;2.10;63.06;102820.19;693394;28;22402;-70
2022/02/12 00:30:21;;;;;;;999.45;932.53;;;;;;;2.10;63.10;102814.88;693676;28;21536;-68
2022/02/12 00:30:42;;;;;;;1005.55;938.45;;;;;;;2.08;63.07;102814.03;691996;28;69218;-69
2022/02/12 00:31:03;;;;;;;1004.97;937.90;;;;;;;2.09;63.14;102818.44;693117;28;21242;-70
2022/02/12 00:31:24;;;;;;;1004.45;937.33;;;;;;;2.08;63.17;102816.72;689855;28;22191;-70
2022/02/12 00:31:46;;;;;;;995.58;928.67;;;;;;;2.05;62.99;102819.53;690890;28;21059;-70
2022/02/12 00:32:08;;;;;;;1002.75;935.50;;;;;;;2.04;63.07;102820.47;689730;28;46832;-69
2022/02/12 00:32:29;;;;;;;996.28;929.40;;;;;;;2.04;63.12;102822.25;690645;28;46297;-69
2022/02/12 00:32:50;;;;;;;995.67;928.78;;;;;;;2.04;63.21;102822.25;691352;28;21566;-69
2022/02/12 00:33:12;;;;;;;1002.95;935.85;;;;;;;2.02;63.29;102826.81;694528;28;22423;-70
2022/02/12 00:33:34;;;;;;;1006.58;939.38;;;;;;;2.03;63.53;102825.88;693725;28;45325;-69
2022/02/12 00:33:55;;;;;;;999.00;932.05;;;;;;;2.04;63.52;102819.59;694663;28;22354;-70
2022/02/12 00:34:16;;;;;;;1000.25;933.25;;;;;;;2.06;63.53;102823.06;694843;28;22325;-69
2022/02/12 00:34:37;;;;;;;995.58;928.78;;;;;;;2.06;63.63;102823.94;694514;28;22370;-69
2022/02/12 00:34:59;;;;;;;987.30;920.78;;;;;;;2.06;63.56;102818.59;693778;28;46339;-69
2022/02/12 00:35:20;;;;;;;1000.67;933.67;;;;;;;2.04;63.66;102822.25;692943;28;46323;-70
2022/02/12 00:35:41;;;;;;;991.30;924.55;;;;;;;2.02;63.46;102822.31;692766;28;21183;-71
2022/02/12 00:36:03;;;;;;;992.65;925.83;;;;;;;2.02;63.54;102827.66;693063;28;22378;-69
2022/02/12 00:36:25;;;;;;;993.00;926.20;;;;;;;1.99;63.55;102825.13;691204;28;46286;-70
2022/02/12 00:36:46;;;;;;;1004.22;937.08;;;;;;;2.00;63.63;102826.00;693495;28;21542;-71
2022/02/12 00:37:07;;;;;;;1018.00;950.08;;;;;;;1.99;63.63;102825.13;693678;28;22366;-69
2022/02/12 00:37:29;;;;;;;1006.08;938.65;;;;;;;2.00;63.74;102823.34;693544;28;21285;-69
2022/02/12 00:37:51;;;;;;;1000.15;933.08;;;;;;;1.99;63.61;102830.47;692901;28;46321;-70
2022/02/12 00:38:13;;;;;;;1005.85;938.50;;;;;;;1.96;63.69;102831.47;692782;28;46404;-70
2022/02/12 00:38:34;;;;;;;996.53;929.55;;;;;;;2.00;63.64;102828.69;692565;28;45236;-69
2022/02/12 00:38:55;;;;;;;985.55;919.03;;;;;;;2.00;63.73;102826.88;693631;28;23470;-70
2022/02/12 00:39:16;;;;;;;996.45;929.63;;;;;;;2.01;63.56;102827.72;693869;28;22371;-70
2022/02/12 00:39:40;;;;;;;1005.50;938.35;;;;;;;2.02;63.84;102832.97;692728;28;45450;-70
2022/02/12 00:40:01;;;;;;;1000.85;933.85;;;;;;;2.03;63.99;102829.41;692413;28;50058;-69
2022/02/12 00:40:25;;;;;;;1000.45;933.50;;;;;;;2.05;63.92;102827.50;693443;28;22394;-70
2022/02/12 00:40:47;;;;;;;1004.53;937.30;;;;;;;2.10;64.06;102829.97;691142;28;90329;-70
2022/02/12 00:41:08;;;;;;;1046.38;976.58;;;;;;;2.12;64.00;102831.63;692558;28;47023;-70
2022/02/12 00:41:29;;;;;;;1059.65;988.92;;;;;;;2.16;64.00;102832.34;692393;28;22413;-69
2022/02/12 00:41:50;;;;;;;1064.05;993.05;;;;;;;2.19;63.85;102836.69;693599;28;22411;-69
2022/02/12 00:42:11;;;;;;;1058.68;987.78;;;;;;;2.21;63.85;102837.47;693871;28;21517;-69
2022/02/12 00:42:33;;;;;;;1066.88;995.72;;;;;;;2.23;63.73;102836.47;693492;28;23472;-70
2022/02/12 00:42:54;;;;;;;1063.10;992.00;;;;;;;2.21;63.48;102830.38;690774;28;70289;-70
2022/02/12 00:43:15;;;;;;;1059.30;988.42;;;;;;;2.21;63.58;102837.47;692378;28;23471;-70
2022/02/12 00:43:37;;;;;;;1059.93;989.05;;;;;;;2.23;63.48;102838.28;693480;28;22354;-69
2022/02/12 00:43:59;;;;;;;1058.32;987.50;;;;;;;2.23;63.38;102827.63;693508;28;21531;-69
2022/02/12 00:44:23;;;;;;;1048.53;978.22;;;;;;;2.23;63.37;102838.28;692848;28;45232;-71
2022/02/12 00:44:44;;;;;;;1056.53;985.95;;;;;;;2.21;63.28;102834.81;690541;28;113570;-69
2022/02/12 00:45:07;;;;;;;1058.50;987.72;;;;;;;2.20;63.38;102841.94;693417;28;22432;-69
2022/02/12 00:45:29;;;;;;;1049.47;979.07;;;;;;;2.19;63.12;102848.22;691374;28;90185;-70
2022/02/12 00:45:50;;;;;;;1049.40;978.92;;;;;;;2.19;63.17;102836.69;692587;28;46367;-69
2022/02/12 00:46:11;;;;;;;1058.97;988.08;;;;;;;2.17;63.21;102842.94;693685;28;22379;-69
2022/02/12 00:46:33;;;;;;;1054.22;983.53;;;;;;;2.16;63.32;102837.69;692699;28;21504;-70
2022/02/12 00:46:55;;;;;;;1047.95;977.55;;;;;;;2.15;63.52;102841.31;692487;28;46369;-69
2022/02/12 00:47:16;;;;;;;1061.47;990.33;;;;;;;2.15;63.32;102835.97;692479;28;44365;-69
2022/02/12 00:47:39;;;;;;;1060.32;989.33;;;;;;;2.14;63.34;102840.41;693368;28;22328;-70
2022/02/12 00:48:01;;;;;;;1058.68;987.78;;;;;;;2.13;63.56;102838.72;691801;28;69255;-70
2022/02/12 00:48:22;;;;;;;1061.00;989.92;;;;;;;2.13;63.42;102841.38;693719;28;17893;-70
2022/02/12 00:48:43;;;;;;;1057.50;986.60;;;;;;;2.12;63.43;102836.97;693024;28;46319;-70
2022/02/12 00:49:05;;;;;;;1041.00;971.25;;;;;;;2.12;63.50;102834.31;693557;28;22412;-70
2022/02/12 00:49:26;;;;;;;1005.55;938.08;;;;;;;2.11;63.45;102839.72;692602;28;44334;-70
2022/02/12 00:49:47;;;;;;;978.08;912.08;;;;;;;2.11;63.47;102845.91;693656;28;22386;-70
2022/02/12 00:50:09;;;;;;;985.33;919.10;;;;;;;2.09;63.50;102842.44;693753;28;21608;-69
2022/02/12 00:50:31;;;;;;;993.35;926.75;;;;;;;2.09;63.58;102837.13;693297;28;21557;-70
2022/02/12 00:50:59;;;;;;;993.67;927.03;;;;;;;2.06;63.65;102837.25;692586;28;45236;-70
2022/02/12 00:51:20;;;;;;;994.22;927.58;;;;;;;2.06;63.74;102845.25;688674;28;137792;-70
2022/02/12 00:51:41;;;;;;;999.78;932.83;;;;;;;2.02;63.71;102835.66;693578;28;21093;-69
2022/02/12 00:52:02;;;;;;;986.78;920.38;;;;;;;2.05;63.60;102845.31;693562;28;22629;-70
2022/02/12 00:52:24;;;;;;;994.92;928.17;;;;;;;2.03;63.64;102841.88;692722;28;46403;-69
2022/02/12 00:52:45;;;;;;;997.45;930.58;;;;;;;1.98;63.69;102840.25;692756;28;46306;-69
2022/02/12 00:53:06;;;;;;;990.53;923.97;;;;;;;1.98;63.66;102842.06;693772;28;22400;-69
2022/02/12 00:53:29;;;;;;;989.03;922.47;;;;;;;1.99;63.83;102846.44;693914;28;12625;-69
2022/02/12 00:53:51;;;;;;;990.42;923.85;;;;;;;2.01;63.92;102847.28;692224;28;69458;-69
2022/02/12 00:54:12;;;;;;;995.97;929.22;;;;;;;2.03;64.12;102850.72;692932;28;45223;-69
2022/02/12 00:54:33;;;;;;;987.22;920.88;;;;;;;2.05;64.24;102843.50;693752;28;22907;-69
2022/02/12 00:54:54;;;;;;;990.22;923.63;;;;;;;2.04;64.21;102852.47;693407;28;22265;-70
2022/02/12 00:55:16;;;;;;;985.42;919.00;;;;;;;2.04;64.03;102852.47;694066;28;21520;-70
2022/02/12 00:55:38;;;;;;;998.10;931.30;;;;;;;2.04;64.16;102848.91;692995;28;45251;-69
2022/02/12 00:55:59;;;;;;;989.35;922.80;;;;;;;2.06;64.11;102849.72;692153;28;44364;-69
2022/02/12 00:56:20;;;;;;;989.58;922.95;;;;;;;2.05;64.04;102853.31;692381;28;22385;-69
2022/02/12 00:56:41;;;;;;;986.80;920.28;;;;;;;2.04;63.95;102854.25;693617;28;21497;-69
2022/02/12 00:57:04;;;;;;;990.75;924.15;;;;;;;2.02;63.85;102850.78;693450;28;20903;-70
2022/02/12 00:57:25;;;;;;;984.95;918.63;;;;;;;2.00;63.83;102850.00;692500;28;45244;-69
2022/02/12 00:57:46;;;;;;;978.22;912.17;;;;;;;1.96;63.87;102844.81;692733;28;44134;-70
2022/02/12 00:58:07;;;;;;;971.38;905.47;;;;;;;1.95;63.75;102850.22;693402;28;22431;-70
2022/02/12 00:58:29;;;;;;;982.00;915.70;;;;;;;1.93;63.85;102846.75;693653;28;22188;-70
2022/02/12 00:58:51;;;;;;;988.25;921.67;;;;;;;1.92;64.08;102835.22;692912;28;46277;-70
2022/02/12 00:59:12;;;;;;;989.92;923.28;;;;;;;1.90;63.90;102849.56;692871;28;45054;-70
2022/02/12 00:59:34;;;;;;;989.40;922.70;;;;;;;1.89;64.00;102845.16;692876;28;46218;-69
2022/02/12 00:59:56;;;;;;;987.70;921.10;;;;;;;1.87;64.07;102847.88;693511;28;23462;-69
2022/02/12 01:00:17;;;;;;;985.63;919.20;;;;;;;1.87;64.12;102839.03;692899;28;45333;-69
2022/02/12 01:00:38;;;;;;;978.53;912.33;;;;;;;1.88;64.11;102843.41;693872;28;23460;-70
2022/02/12 01:00:59;;;;;;;985.97;919.47;;;;;;;1.89;64.25;102847.81;693400;28;22219;-70
2022/02/12 01:01:20;;;;;;;993.72;927.03;;;;;;;1.91;64.33;102848.59;693093;28;20821;-69
2022/02/12 01:01:42;;;;;;;988.22;921.70;;;;;;;1.91;64.43;102844.16;693352;28;24159;-69
2022/02/12 01:02:04;;;;;;;983.05;916.65;;;;;;;1.89;64.19;102846.00;690366;28;69259;-69
2022/02/12 01:02:25;;;;;;;997.30;930.45;;;;;;;1.88;64.36;102846.06;692375;28;22286;-69
2022/02/12 01:02:48;;;;;;;982.30;916.00;;;;;;;1.85;64.29;102844.44;692707;28;46150;-69
2022/02/12 01:03:09;;;;;;;998.53;931.55;;;;;;;1.86;64.26;102842.63;692737;28;45252;-69
2022/02/12 01:03:33;;;;;;;990.67;923.95;;;;;;;1.83;64.36;102838.28;693953;28;13597;-69
2022/02/12 01:03:54;;;;;;;980.70;914.38;;;;;;;1.82;64.36;102843.69;692708;28;46306;-70
2022/02/12 01:04:15;;;;;;;991.70;925.00;;;;;;;1.80;64.33;102841.97;694077;28;22389;-69
2022/02/12 01:04:38;;;;;;;989.10;922.55;;;;;;;1.79;64.42;102847.38;694820;28;23326;-70
2022/02/12 01:04:59;;;;;;;986.92;920.42;;;;;;;1.78;64.38;102854.47;693970;28;46280;-69
2022/02/12 01:05:20;;;;;;;995.70;928.88;;;;;;;1.78;64.49;102848.28;694736;28;22152;-69
2022/02/12 01:05:42;;;;;;;989.38;922.72;;;;;;;1.78;64.40;102843.81;694342;28;21553;-72
2022/02/12 01:06:03;;;;;;;982.67;916.28;;;;;;;1.78;64.45;102853.63;692094;28;69222;-69
2022/02/12 01:06:24;;;;;;;987.55;920.95;;;;;;;1.79;64.57;102852.69;692068;28;22149;-70
2022/02/12 01:06:45;;;;;;;990.33;923.63;;;;;;;1.78;64.83;102842.97;693414;28;21537;-69
2022/02/12 01:07:07;;;;;;;992.55;925.85;;;;;;;1.77;64.68;102842.09;690469;28;22050;-69
2022/02/12 01:07:29;;;;;;;989.25;922.60;;;;;;;1.76;64.57;102848.34;687772;28;67571;-69
2022/02/12 01:07:50;;;;;;;994.03;927.22;;;;;;;1.77;64.62;102844.78;690698;28;22395;-70
2022/02/12 01:08:12;;;;;;;997.50;930.50;;;;;;;1.77;64.55;102847.44;691376;28;20861;-69
2022/02/12 01:08:35;;;;;;;990.08;923.38;;;;;;;1.77;64.68;102846.53;693810;28;46346;-70
2022/02/12 01:08:56;;;;;;;988.25;921.70;;;;;;;1.74;64.55;102842.25;692947;28;68366;-69
2022/02/12 01:09:17;;;;;;;979.97;913.67;;;;;;;1.72;64.64;102843.22;693525;28;22466;-70
2022/02/12 01:09:39;;;;;;;990.00;923.30;;;;;;;1.73;64.60;102842.31;693644;28;22405;-69
2022/02/12 01:10:00;;;;;;;994.65;927.75;;;;;;;1.72;64.50;102841.41;692539;28;46053;-69
2022/02/12 01:10:21;;;;;;;988.67;922.00;;;;;;;1.73;64.53;102842.31;693263;28;22549;-69
2022/02/12 01:10:44;;;;;;;989.65;923.05;;;;;;;1.71;64.60;102847.69;691773;28;67479;-69
2022/02/12 01:11:05;;;;;;;992.58;925.83;;;;;;;1.73;64.56;102844.97;693632;28;21548;-68
2022/02/12 01:11:27;;;;;;;993.88;927.13;;;;;;;1.74;64.54;102844.03;692997;28;23762;-69
2022/02/12 01:11:48;;;;;;;998.10;931.15;;;;;;;1.72;64.73;102843.22;692332;28;70464;-69
2022/02/12 01:12:09;;;;;;;995.90;929.05;;;;;;;1.75;64.63;102851.09;694024;28;23466;-70
2022/02/12 01:12:30;;;;;;;987.20;920.67;;;;;;;1.73;64.68;102847.63;693763;28;22396;-70
2022/02/12 01:12:53;;;;;;;998.50;931.50;;;;;;;1.72;64.56;102841.41;694291;28;21363;-70
2022/02/12 01:13:14;;;;;;;1006.25;939.03;;;;;;;1.72;64.56;102841.41;693616;28;46397;-69
2022/02/12 01:13:35;;;;;;;1000.85;933.83;;;;;;;1.73;64.53;102852.97;694288;28;21546;-69
2022/02/12 01:13:56;;;;;;;1000.30;933.20;;;;;;;1.71;64.52;102847.69;693369;28;44058;-69
2022/02/12 01:14:17;;;;;;;998.42;931.38;;;;;;;1.68;64.55;102844.28;694260;28;21535;-69
2022/02/12 01:14:39;;;;;;;1001.33;934.17;;;;;;;1.67;64.36;102845.25;694224;28;23881;-69
2022/02/12 01:15:00;;;;;;;998.60;931.58;;;;;;;1.65;64.43;102847.97;693109;28;45666;-69
2022/02/12 01:15:22;;;;;;;995.67;928.83;;;;;;;1.64;64.53;102850.69;694088;28;22396;-70
2022/02/12 01:15:43;;;;;;;989.22;922.50;;;;;;;1.60;64.51;102848.16;693479;28;21531;-70
2022/02/12 01:16:05;;;;;;;994.80;927.95;;;;;;;1.60;64.53;102849.97;692606;28;22408;-70
2022/02/12 01:16:26;;;;;;;995.42;928.55;;;;;;;1.59;64.65;102849.09;690707;28;69432;-69
2022/02/12 01:16:47;;;;;;;995.60;928.72;;;;;;;1.57;64.75;102850.09;694161;28;21541;-70
2022/02/12 01:17:10;;;;;;;999.03;931.97;;;;;;;1.56;64.62;102848.38;693941;28;21564;-68
2022/02/12 01:17:32;;;;;;;997.28;930.28;;;;;;;1.54;64.79;102855.56;693249;28;44941;-70
2022/02/12 01:17:53;;;;;;;999.13;931.97;;;;;;;1.53;64.94;102843.16;693166;28;46523;-69
2022/02/12 01:18:14;;;;;;;998.80;931.83;;;;;;;1.51;64.90;102848.56;694365;28;22386;-69
2022/02/12 01:18:35;;;;;;;1000.55;933.55;;;;;;;1.47;64.86;102846.09;693555;28;23435;-69
2022/02/12 01:18:56;;;;;;;1000.13;933.10;;;;;;;1.42;65.02;102849.81;694218;28;22545;-68
2022/02/12 01:19:18;;;;;;;994.25;927.42;;;;;;;1.39;65.09;102844.63;693957;28;21484;-69
2022/02/12 01:19:39;;;;;;;999.58;932.55;;;;;;;1.39;65.05;102846.44;693395;28;46098;-69
2022/02/12 01:20:00;;;;;;;998.80;931.80;;;;;;;1.36;65.30;102851.88;693552;28;46268;-69
2022/02/12 01:20:22;;;;;;;1001.58;934.42;;;;;;;1.35;65.36;102851.03;693771;28;24468;-69
2022/02/12 01:20:43;;;;;;;1002.70;935.42;;;;;;;1.34;65.48;102848.44;693088;28;48032;-69
2022/02/12 01:21:06;;;;;;;1001.75;934.55;;;;;;;1.30;65.58;102845.03;693655;28;23459;-68
2022/02/12 01:21:27;;;;;;;999.25;932.05;;;;;;;1.31;65.69;102849.41;692386;28;46297;-70
2022/02/12 01:21:48;;;;;;;1003.22;936.08;;;;;;;1.30;65.86;102849.47;694279;28;23482;-70
2022/02/12 01:22:10;;;;;;;1000.97;933.78;;;;;;;1.30;65.80;102854.78;692603;28;44115;-68
2022/02/12 01:22:32;;;;;;;1003.10;935.92;;;;;;;1.30;65.84;102853.03;694039;28;22394;-70
2022/02/12 01:22:53;;;;;;;1001.00;933.95;;;;;;;1.28;65.81;102846.88;693081;28;45408;-69
2022/02/12 01:23:14;;;;;;;1008.60;941.17;;;;;;;1.25;65.98;102842.56;693909;28;21641;-69
2022/02/12 01:23:36;;;;;;;1004.80;937.50;;;;;;;1.29;66.03;102847.75;694114;28;21578;-69
2022/02/12 01:23:59;;;;;;;996.30;929.28;;;;;;;1.30;66.01;102850.38;692591;28;45236;-70
2022/02/12 01:24:20;;;;;;;1002.25;935.03;;;;;;;1.30;65.99;102849.47;693062;28;46418;-70
2022/02/12 01:24:42;;;;;;;1007.90;940.45;;;;;;;1.30;65.88;102853.03;692912;28;44176;-70
2022/02/12 01:25:05;;;;;;;1012.40;944.78;;;;;;;1.31;65.73;102860.06;693132;28;45017;-70
2022/02/12 01:25:26;;;;;;;1008.70;941.22;;;;;;;1.29;65.88;102851.28;691094;28;69506;-70
2022/02/12 01:25:48;;;;;;;1003.40;936.13;;;;;;;1.25;65.96;102847.00;693684;28;22408;-69
2022/02/12 01:26:09;;;;;;;1002.72;935.63;;;;;;;1.26;65.98;102854.94;692937;28;44354;-69
2022/02/12 01:26:31;;;;;;;997.92;930.92;;;;;;;1.26;66.08;102857.59;693042;28;22380;-69
2022/02/12 01:26:56;;;;;;;1003.63;936.30;;;;;;;1.28;66.05;102857.53;691002;28;67273;-70
2022/02/12 01:27:17;;;;;;;1006.15;938.72;;;;;;;1.28;66.17;102860.19;691722;28;92548;-69
2022/02/12 01:27:38;;;;;;;1005.22;938.00;;;;;;;1.30;66.15;102862.78;694103;28;21517;-69
2022/02/12 01:28:00;;;;;;;1006.72;939.45;;;;;;;1.34;66.13;102869.72;694213;28;21511;-70
2022/02/12 01:28:21;;;;;;;1003.95;936.65;;;;;;;1.33;66.11;102860.00;693465;28;46269;-70
2022/02/12 01:28:42;;;;;;;1005.75;938.45;;;;;;;1.34;66.07;102861.75;694171;28;21531;-69
2022/02/12 01:29:04;;;;;;;996.25;929.33;;;;;;;1.35;66.17;102858.13;694078;28;22229;-70
2022/02/12 01:29:26;;;;;;;998.35;931.38;;;;;;;1.37;66.04;102862.47;691909;28;44370;-71
2022/02/12 01:29:47;;;;;;;1007.15;939.78;;;;;;;1.36;66.01;102863.38;693308;28;45263;-70
2022/02/12 01:30:09;;;;;;;1000.95;933.65;;;;;;;1.37;65.95;102865.13;694101;28;22359;-69
2022/02/12 01:30:30;;;;;;;998.67;931.53;;;;;;;1.38;65.98;102855.34;693217;28;44175;-69
2022/02/12 01:30:51;;;;;;;995.28;928.28;;;;;;;1.39;65.93;102857.94;693182;28;45077;-69
2022/02/12 01:31:14;;;;;;;996.63;929.60;;;;;;;1.38;65.83;102858.88;696620;28;22391;-69
2022/02/12 01:31:35;;;;;;;1007.55;940.13;;;;;;;1.39;65.83;102863.25;693815;28;65598;-69
2022/02/12 01:32:03;;;;;;;1004.78;937.47;;;;;;;1.37;65.92;102858.94;696612;28;22342;-70
2022/02/12 01:32:28;;;;;;;1004.55;937.25;;;;;;;1.38;65.81;102855.34;689529;28;137911;-69
2022/02/12 01:32:50;;;;;;;1002.63;935.42;;;;;;;1.37;65.77;102846.50;690666;28;114883;-68
2022/02/12 01:33:11;;;;;;;992.08;925.30;;;;;;;1.37;65.89;102857.13;693890;28;22366;-69
2022/02/12 01:33:32;;;;;;;1001.55;934.45;;;;;;;1.36;65.88;102852.72;692399;28;21422;-69
2022/02/12 01:33:54;;;;;;;1003.75;936.50;;;;;;;1.37;65.93;102854.47;692406;28;21173;-69
2022/02/12 01:34:15;;;;;;;1000.72;933.53;;;;;;;1.36;65.79;102855.41;693348;28;23464;-70
2022/02/12 01:34:37;;;;;;;996.58;929.58;;;;;;;1.40;65.94;102858.81;694939;28;22196;-69
2022/02/12 01:34:59;;;;;;;999.35;932.25;;;;;;;1.39;65.92;102862.41;694284;28;45210;-69
2022/02/12 01:35:23;;;;;;;1004.05;936.83;;;;;;;1.38;65.77;102856.22;694227;28;44387;-69
2022/02/12 01:35:44;;;;;;;1007.28;939.88;;;;;;;1.38;65.73;102858.00;691178;28;92327;-69
2022/02/12 01:36:05;;;;;;;1003.28;936.00;;;;;;;1.36;65.78;102855.41;693758;28;22388;-69
2022/02/12 01:36:28;;;;;;;990.45;923.78;;;;;;;1.37;65.87;102861.63;690075;28;22714;-69
2022/02/12 01:36:49;;;;;;;985.33;918.83;;;;;;;1.37;65.95;102859.81;687910;28;67636;-69
2022/02/12 01:37:10;;;;;;;993.90;927.10;;;;;;;1.36;65.83;102859.88;689843;28;23479;-70
2022/02/12 01:37:31;;;;;;;994.67;927.78;;;;;;;1.36;65.97;102862.53;689393;28;22386;-69